Home > Products > Valid Products > TAF

000
FTUS43 KOAX 290520
TAFLNK
TAF
KLNK 290520Z 2906/3006 27005KT P6SM SCT250
     FM290800 24004KT P6SM BKN100=



000
FTUS43 KOAX 281208 AAA
TAFOFK
TAF AMD
KOFK 281208Z 2812/2912 25007KT P6SM BKN035
      TEMPO 2812/2816 BKN010
     FM281900 30010KT P6SM OVC050
     FM290200 30005KT P6SM OVC100
     FM290300 29003KT P6SM SCT250=



000
FTUS43 KOAX 281148 AAA
TAFOMA
TAF AMD
KOMA 281148Z 2812/2912 18009KT P6SM SCT030 BKN080
      TEMPO 2812/2814 BKN011
     FM281800 24008KT P6SM BKN100
     FM290600 29005KT P6SM SKC=



000
FTUS43 KOAX 272320
TAFLNK
TAF
KLNK 272320Z 2800/2824 12004KT P6SM VCSH BKN050
      TEMPO 2800/2804 5SM TSRA BR BKN025CB
     FM280400 VRB04KT P6SM SCT025 OVC090
      TEMPO 2804/2806 -SHRA BKN025
     FM280600 12004KT P6SM SCT025 BKN060
      TEMPO 2806/2809 -SHRA BKN025=



000
FTUS43 KOAX 272320
TAFOMA
TAF
KOMA 272320Z 2800/2824 11004KT P6SM BKN050
      TEMPO 2801/2805 5SM TSRA BR BKN025CB
     FM280500 VRB04KT P6SM SCT025 OVC100
      TEMPO 2805/2809 -SHRA BKN025=



000
FTUS43 KOAX 272320
TAFOFK
TAF
KOFK 272320Z 2800/2824 10005KT P6SM BKN090
     FM280200 10005KT P6SM -SHRA OVC050
      TEMPO 2803/2807 5SM TSRA BR BKN025CB
     FM281200 34006KT P6SM OVC050=



000
FTUS43 KOAX 271519 AAA
TAFOMA
TAF AMD
KOMA 271519Z 2715/2812 07006KT P6SM SCT020 BKN080
      TEMPO 2715/2719 -SHRA BKN020
     FM271900 15006KT P6SM BKN050
      TEMPO 2721/2801 P6SM TS BKN040CB
     FM280600 15003KT P6SM OVC100=



000
FTUS43 KOAX 271515 AAA
TAFLNK
TAF AMD
KLNK 271515Z 2715/2812 01006KT P6SM -SHRA SCT025 OVC070
      TEMPO 2715/2717 -TSRA BKN025CB
     FM271800 16008KT P6SM SCT025 OVC050
      TEMPO 2722/2802 P6SM TS BKN040CB
     FM280300 10005KT P6SM OVC100=



000
FTUS43 KOAX 271200 AAA
TAFOFK
TAF AMD
KOFK 271200Z 2712/2812 12008KT P6SM SCT010 BKN090
      TEMPO 2712/2715 BKN015
     FM271700 05007KT P6SM BKN050
     FM280000 08004KT P6SM OVC100 PROB30 2800/2803 P6SM TS BKN040CB=



000
FTUS43 KOAX 271120
TAFOFK
TAF
KOFK 271120Z 2712/2812 12008KT P6SM SCT010 BKN090
     FM271700 05007KT P6SM BKN050
     FM280000 08004KT P6SM OVC100 PROB30 2800/2803 P6SM TS BKN040CB=



000
FTUS43 KOAX 271120
TAFLNK
TAF
KLNK 271120Z 2712/2812 01006KT P6SM OVC100
     FM271800 16008KT P6SM OVC050 PROB30 2721/2803 P6SM TS BKN040CB
     FM280300 10005KT P6SM OVC100=



000
FTUS43 KOAX 271120
TAFOMA
TAF
KOMA 271120Z 2712/2812 20003KT P6SM SCT010 OVC150
     FM271500 15006KT P6SM BKN050 PROB30 2721/2803 P6SM TS BKN040CB
     FM280600 15003KT P6SM OVC100=



000
FTUS43 KOAX 270736 AAB
TAFLNK
TAF AMD
KLNK 270736Z 2708/2806 17010KT P6SM OVC050
      TEMPO 2708/2709 5SM SHRA BKN010
     FM270900 14014KT 5SM -SHRA OVC050
     FM271200 14006KT 4SM BR OVC025
     FM271800 16008KT P6SM OVC050 PROB30 2721/2803 P6SM TS BKN040CB=



000
FTUS43 KOAX 270520
TAFOFK
TAF
KOFK 270520Z 2706/2806 13009KT P6SM OVC150
      TEMPO 2707/2709 6SM -SHRA OVC090
     FM270900 12005KT 6SM -SHRA OVC090
     FM271200 08004KT 4SM BR OVC025
     FM271700 05007KT P6SM BKN050 PROB30 2718/2724 P6SM TS BKN040CB
     FM280000 08004KT P6SM OVC100 PROB30 2800/2803 P6SM TS BKN040CB=



    US Dept of Commerce
    National Oceanic and Atmospheric Administration
    National Weather Service
    1325 East West Highway
    Silver Spring, MD 20910
    Page Author: NWS Internet Services Team
Disclaimer
Information Quality
Credits
Glossary
Privacy Policy
Freedom of Information Act (FOIA)
About Us
Career Opportunities